Orbital elements of SL-12 R/B(2)
| Launched | 17 November 1986 |
| Flight ended | – |
| Launch site | Tyuratam Missile and Space Center, Kazakhstan (Also known as Baikonur Cosmodrome) |
| Owner | Commonwealth of Independent States (former USSR) |
| NORAD ID | 17125 |
| Date fetched |
Epoch osculation |
Inc. [°] |
Ecc. | RA asc node [hr] |
Arg Peri. [°] |
Mean anom [°] |
Mean motion [rev/day] |
Abs. mag |
| Date fetched |
Epoch osculation |
Inc. [°] |
Ecc. | RA asc node [hr] |
Arg Peri. [°] |
Mean anom [°] |
Mean motion [rev/day] |
Abs. mag |
| 2026 May 05 17:57 | 2026 May 04 22:10:24 | 10.4089 | 0.00078 | 21.5346 | 181.4951 | 178.4196 | 1.00279 | – |
| 2026 May 04 17:57 | 2026 Apr 29 22:30:35 | 10.4169 | 0.00078 | 21.5365 | 181.2734 | 178.4196 | 1.00279 | – |
| 2026 May 03 17:57 | 2026 Apr 29 22:30:35 | 10.4169 | 0.00078 | 21.5365 | 181.2734 | 178.4196 | 1.00279 | – |
| 2026 May 02 17:57 | 2026 Apr 29 22:30:35 | 10.4169 | 0.00078 | 21.5365 | 181.2734 | 178.4196 | 1.00279 | – |
| 2026 May 01 17:56 | 2026 Apr 29 22:30:35 | 10.4169 | 0.00078 | 21.5365 | 181.2734 | 178.4196 | 1.00279 | – |
| 2026 Apr 30 17:56 | 2026 Apr 29 22:30:35 | 10.4169 | 0.00078 | 21.5365 | 181.2734 | 178.4196 | 1.00279 | – |
| 2026 Apr 29 17:57 | 2026 Apr 23 22:55:22 | 10.4260 | 0.00078 | 21.5389 | 180.6632 | 178.4196 | 1.00279 | – |
| 2026 Apr 28 17:56 | 2026 Apr 23 22:55:22 | 10.4260 | 0.00078 | 21.5389 | 180.6632 | 178.4196 | 1.00279 | – |
| 2026 Apr 27 17:58 | 2026 Apr 23 22:55:22 | 10.4260 | 0.00078 | 21.5389 | 180.6632 | 178.4196 | 1.00279 | – |
| 2026 Apr 26 17:58 | 2026 Apr 23 22:55:22 | 10.4260 | 0.00078 | 21.5389 | 180.6632 | 178.4196 | 1.00279 | – |
| 2026 Apr 25 17:58 | 2026 Apr 23 22:55:22 | 10.4260 | 0.00078 | 21.5389 | 180.6632 | 178.4196 | 1.00279 | – |
| 2026 Apr 24 17:59 | 2026 Apr 23 22:55:22 | 10.4260 | 0.00078 | 21.5389 | 180.6632 | 178.4196 | 1.00279 | – |
| 2026 Apr 23 17:57 | 2026 Apr 18 23:16:03 | 10.4335 | 0.00077 | 21.5411 | 180.5376 | 178.4196 | 1.00279 | – |
| 2026 Apr 22 17:57 | 2026 Apr 18 23:16:03 | 10.4335 | 0.00077 | 21.5411 | 180.5376 | 178.4196 | 1.00279 | – |
| 2026 Apr 21 17:57 | 2026 Apr 18 23:16:03 | 10.4335 | 0.00077 | 21.5411 | 180.5376 | 178.4196 | 1.00279 | – |
| 2026 Apr 20 17:57 | 2026 Apr 18 23:16:03 | 10.4335 | 0.00077 | 21.5411 | 180.5376 | 178.4196 | 1.00279 | – |
| 2026 Apr 19 17:58 | 2026 Apr 18 23:16:03 | 10.4335 | 0.00077 | 21.5411 | 180.5376 | 178.4196 | 1.00279 | – |
| 2026 Apr 18 17:56 | 2026 Apr 11 23:45:32 | 10.4441 | 0.00076 | 21.5440 | 181.2830 | 178.4196 | 1.00279 | – |
| 2026 Apr 16 17:57 | 2026 Apr 11 23:45:32 | 10.4441 | 0.00076 | 21.5440 | 181.2830 | 178.4196 | 1.00279 | – |
| 2026 Apr 14 17:57 | 2026 Apr 11 23:45:32 | 10.4441 | 0.00076 | 21.5440 | 181.2830 | 178.4196 | 1.00279 | – |
| 2026 Apr 13 17:57 | 2026 Apr 11 23:45:32 | 10.4441 | 0.00076 | 21.5440 | 181.2830 | 178.4196 | 1.00279 | – |
| 2026 Apr 12 17:57 | 2026 Apr 08 00:02:25 | 10.4504 | 0.00076 | 21.5456 | 181.8828 | 178.4196 | 1.00279 | – |
| 2026 Apr 11 17:57 | 2026 Apr 08 00:02:25 | 10.4504 | 0.00076 | 21.5456 | 181.8828 | 178.4196 | 1.00279 | – |
| 2026 Apr 10 17:58 | 2026 Apr 08 00:02:25 | 10.4504 | 0.00076 | 21.5456 | 181.8828 | 178.4196 | 1.00279 | – |
| 2026 Apr 09 18:01 | 2026 Apr 08 00:02:25 | 10.4504 | 0.00076 | 21.5456 | 181.8828 | 178.4196 | 1.00279 | – |
| 2026 Apr 08 17:57 | 2026 Apr 08 00:02:25 | 10.4504 | 0.00076 | 21.5456 | 181.8828 | 178.4196 | 1.00279 | – |